Time;durP1;ratioP1;P1;durP2;ratioP2;P2;SDS_P1;SDS_P2;PMS_P1;PMS_P2;Temp;Humidity;BMP_temperature;BMP_pressure;BME280_temperature;BME280_humidity;BME280_pressure;Samples;Min_cycle;Max_cycle;Signal;HPM_P1;HPM_P2
2021/01/15 00:02:14;;;;;;;5.07;4.00;;;;;;;;;;5028744;28;20878;-57
2021/01/15 00:04:40;;;;;;;4.97;3.97;;;;;;;;;;5028440;28;21257;-57
2021/01/15 00:07:06;;;;;;;5.67;3.80;;;;;;;;;;5029686;28;20471;-57
2021/01/15 00:09:32;;;;;;;5.43;4.10;;;;;;;;;;5029674;28;20468;-57
2021/01/15 00:11:58;;;;;;;5.17;4.17;;;;;;;;;;5029331;28;20431;-57
2021/01/15 00:14:24;;;;;;;4.87;3.53;;;;;;;;;;5029110;28;20813;-56
2021/01/15 00:16:56;;;;;;;5.83;4.03;;;;;;;;;;5011214;28;20887;-56
2021/01/15 00:19:23;;;;;;;5.07;4.23;;;;;;;;;;5011478;28;20935;-57
2021/01/15 00:21:49;;;;;;;8.00;4.70;;;;;;;;;;5011535;28;20453;-57
2021/01/15 00:24:16;;;;;;;5.27;4.27;;;;;;;;;;5029270;28;20429;-56
2021/01/15 00:26:43;;;;;;;5.67;4.77;;;;;;;;;;5008583;28;21318;-57
2021/01/15 00:29:10;;;;;;;5.67;4.80;;;;;;;;;;5029260;28;20465;-57
2021/01/15 00:31:36;;;;;;;8.03;5.03;;;;;;;;;;5028826;28;20494;-56
2021/01/15 00:34:03;;;;;;;7.23;5.23;;;;;;;;;;5029688;28;20416;-57
2021/01/15 00:36:29;;;;;;;5.90;4.73;;;;;;;;;;5011431;28;20437;-57
2021/01/15 00:38:55;;;;;;;6.93;4.80;;;;;;;;;;5029940;28;20408;-56
2021/01/15 00:41:21;;;;;;;5.73;5.13;;;;;;;;;;5028634;28;20467;-59
2021/01/15 00:43:47;;;;;;;6.53;5.10;;;;;;;;;;5029743;28;20424;-58
2021/01/15 00:46:27;;;;;;;6.17;5.57;;;;;;;;;;5028049;28;20424;-57
2021/01/15 00:48:53;;;;;;;6.97;5.50;;;;;;;;;;5029543;28;20399;-57
2021/01/15 00:51:19;;;;;;;7.33;5.63;;;;;;;;;;5011530;28;20431;-57
2021/01/15 00:53:45;;;;;;;8.00;5.67;;;;;;;;;;5029181;28;20486;-57
2021/01/15 00:56:11;;;;;;;6.77;5.70;;;;;;;;;;5032809;28;20871;-57
2021/01/15 00:58:37;;;;;;;7.57;6.10;;;;;;;;;;5014783;28;21040;-57
2021/01/15 01:01:03;;;;;;;8.20;5.57;;;;;;;;;;5032740;28;20460;-58
2021/01/15 01:03:29;;;;;;;6.93;5.80;;;;;;;;;;5033177;28;20419;-57
2021/01/15 01:05:55;;;;;;;7.10;5.20;;;;;;;;;;5032851;28;20416;-57
2021/01/15 01:08:27;;;;;;;7.27;5.60;;;;;;;;;;5032014;28;20560;-57
2021/01/15 01:10:53;;;;;;;6.50;5.20;;;;;;;;;;5020061;28;20494;-58
2021/01/15 01:13:22;;;;;;;7.27;5.93;;;;;;;;;;5034699;28;20408;-58
2021/01/15 01:15:48;;;;;;;7.33;5.83;;;;;;;;;;5033127;28;20427;-61
2021/01/15 01:18:14;;;;;;;5.63;4.83;;;;;;;;;;5035336;28;20424;-57
2021/01/15 01:20:40;;;;;;;8.47;5.83;;;;;;;;;;5031746;28;20428;-58
2021/01/15 01:23:06;;;;;;;7.77;5.93;;;;;;;;;;5014606;28;20463;-57
2021/01/15 01:25:32;;;;;;;9.63;5.97;;;;;;;;;;5014585;28;20192;-57
2021/01/15 01:27:59;;;;;;;7.43;5.90;;;;;;;;;;5032180;28;20447;-57
2021/01/15 01:30:25;;;;;;;7.30;5.67;;;;;;;;;;5014327;28;20413;-56
2021/01/15 01:32:51;;;;;;;7.77;6.20;;;;;;;;;;5031955;28;20463;-57
2021/01/15 01:35:17;;;;;;;6.57;5.80;;;;;;;;;;5014015;28;20448;-56
2021/01/15 01:37:43;;;;;;;8.13;5.37;;;;;;;;;;5032590;28;20424;-57
2021/01/15 01:40:10;;;;;;;7.00;5.37;;;;;;;;;;5032191;28;20903;-57
2021/01/15 01:42:36;;;;;;;8.17;5.40;;;;;;;;;;5012153;28;20515;-56
2021/01/15 01:45:02;;;;;;;6.50;5.30;;;;;;;;;;5017878;28;20412;-57
2021/01/15 01:47:28;;;;;;;6.63;5.57;;;;;;;;;;5031867;28;20429;-57
2021/01/15 01:49:54;;;;;;;8.13;6.03;;;;;;;;;;5013576;28;20421;-56
2021/01/15 01:52:20;;;;;;;5.57;4.93;;;;;;;;;;5032227;28;20907;-57
2021/01/15 01:54:47;;;;;;;6.47;5.27;;;;;;;;;;5014177;28;20441;-57
2021/01/15 01:57:13;;;;;;;8.50;5.73;;;;;;;;;;5031555;28;20927;-57
2021/01/15 01:59:39;;;;;;;6.40;5.60;;;;;;;;;;5031320;28;20429;-58
2021/01/15 02:02:05;;;;;;;6.10;5.23;;;;;;;;;;5014015;28;20529;-57
2021/01/15 02:04:31;;;;;;;7.07;6.00;;;;;;;;;;5030550;28;20448;-57
2021/01/15 02:06:57;;;;;;;6.87;5.50;;;;;;;;;;5013436;28;20480;-57
2021/01/15 02:09:31;;;;;;;7.30;5.97;;;;;;;;;;5031643;28;20926;-58
2021/01/15 02:12:10;;;;;;;7.50;5.77;;;;;;;;;;5030792;28;20433;-57
2021/01/15 02:14:57;;;;;;;7.17;5.03;;;;;;;;;;5031425;28;20602;-59
2021/01/15 02:17:26;;;;;;;6.40;5.03;;;;;;;;;;5031243;28;20428;-60
2021/01/15 02:20:04;;;;;;;8.10;5.93;;;;;;;;;;5031235;28;20435;-57
2021/01/15 02:22:41;;;;;;;6.87;4.87;;;;;;;;;;5031042;28;20926;-57
2021/01/15 02:25:26;;;;;;;6.50;5.23;;;;;;;;;;5031414;28;20420;-57
2021/01/15 02:27:52;;;;;;;6.37;5.43;;;;;;;;;;5030633;28;20486;-57
2021/01/15 02:30:18;;;;;;;6.77;5.47;;;;;;;;;;5013443;28;20417;-58
2021/01/15 02:32:56;;;;;;;6.77;5.20;;;;;;;;;;5030854;28;20196;-59
2021/01/15 02:35:41;;;;;;;6.60;5.47;;;;;;;;;;5030891;28;20196;-57
2021/01/15 02:38:14;;;;;;;7.80;5.30;;;;;;;;;;5030761;28;20427;-57
2021/01/15 02:40:43;;;;;;;5.90;5.10;;;;;;;;;;5031230;28;20880;-57
2021/01/15 02:43:09;;;;;;;6.00;4.80;;;;;;;;;;5030952;28;20449;-58
2021/01/15 02:45:35;;;;;;;6.50;5.33;;;;;;;;;;5030734;28;20429;-57
2021/01/15 02:48:03;;;;;;;5.30;4.70;;;;;;;;;;5030846;28;20428;-57
2021/01/15 02:50:29;;;;;;;7.80;5.13;;;;;;;;;;5030232;28;20425;-57
2021/01/15 02:52:59;;;;;;;6.70;5.30;;;;;;;;;;5030174;28;20972;-57
2021/01/15 02:55:25;;;;;;;6.40;4.83;;;;;;;;;;5029972;28;20432;-58
2021/01/15 02:57:52;;;;;;;7.00;5.17;;;;;;;;;;5030614;28;20883;-57
2021/01/15 03:00:19;;;;;;;6.20;5.27;;;;;;;;;;5029858;28;20421;-56
2021/01/15 03:02:45;;;;;;;7.23;5.43;;;;;;;;;;5030092;28;20472;-58
2021/01/15 03:05:16;;;;;;;8.80;6.50;;;;;;;;;;5012168;28;20862;-57
2021/01/15 03:07:43;;;;;;;7.27;4.90;;;;;;;;;;5030110;28;20405;-57
2021/01/15 03:10:09;;;;;;;6.90;5.33;;;;;;;;;;5029941;28;20547;-57
2021/01/15 03:12:37;;;;;;;6.53;4.93;;;;;;;;;;5029028;28;20439;-57
2021/01/15 03:15:04;;;;;;;7.00;5.47;;;;;;;;;;5029537;28;20420;-57
2021/01/15 03:17:31;;;;;;;7.20;5.80;;;;;;;;;;5031950;28;20443;-58
2021/01/15 03:19:57;;;;;;;6.50;5.13;;;;;;;;;;5031818;28;20416;-57
2021/01/15 03:22:24;;;;;;;6.43;4.93;;;;;;;;;;5029976;28;20807;-58
2021/01/15 03:24:54;;;;;;;6.53;4.83;;;;;;;;;;5030281;28;20910;-57
2021/01/15 03:27:20;;;;;;;5.63;5.00;;;;;;;;;;5007385;28;20432;-56
2021/01/15 03:29:47;;;;;;;8.43;5.93;;;;;;;;;;5029644;28;20412;-56
2021/01/15 03:32:13;;;;;;;7.97;5.60;;;;;;;;;;5011818;28;20514;-56
2021/01/15 03:34:39;;;;;;;6.37;5.67;;;;;;;;;;5011317;28;20433;-59
2021/01/15 03:37:06;;;;;;;5.83;4.90;;;;;;;;;;5030102;28;20424;-56
2021/01/15 03:39:32;;;;;;;5.77;5.00;;;;;;;;;;5012259;28;20431;-56
2021/01/15 03:41:58;;;;;;;7.03;5.43;;;;;;;;;;5029548;28;20456;-57
2021/01/15 03:44:24;;;;;;;7.63;5.53;;;;;;;;;;5029030;28;20428;-56
2021/01/15 03:46:54;;;;;;;6.17;4.97;;;;;;;;;;5011356;28;20539;-60
2021/01/15 03:49:20;;;;;;;7.03;5.67;;;;;;;;;;5029959;28;20423;-58
2021/01/15 03:51:46;;;;;;;5.77;4.80;;;;;;;;;;5012051;28;20935;-56
2021/01/15 03:54:12;;;;;;;8.03;6.23;;;;;;;;;;5029379;28;20880;-57
2021/01/15 03:56:38;;;;;;;6.90;5.57;;;;;;;;;;5029102;28;20424;-56
2021/01/15 03:59:04;;;;;;;7.93;5.07;;;;;;;;;;5030015;28;20786;-56
2021/01/15 04:01:32;;;;;;;6.37;5.33;;;;;;;;;;5029336;28;20456;-56
2021/01/15 04:03:58;;;;;;;6.87;5.57;;;;;;;;;;5029618;28;20428;-56
2021/01/15 04:06:27;;;;;;;7.47;5.67;;;;;;;;;;5029190;28;20436;-59
2021/01/15 04:08:53;;;;;;;6.30;5.67;;;;;;;;;;5026825;28;20590;-58
2021/01/15 04:11:20;;;;;;;8.43;6.20;;;;;;;;;;5019486;28;20416;-56
2021/01/15 04:13:46;;;;;;;8.13;5.47;;;;;;;;;;5029842;28;20879;-56
2021/01/15 04:16:13;;;;;;;9.03;6.53;;;;;;;;;;5029132;28;20429;-56
2021/01/15 04:18:39;;;;;;;6.83;5.87;;;;;;;;;;5029561;28;20424;-56
2021/01/15 04:21:05;;;;;;;6.83;5.83;;;;;;;;;;5028993;28;20428;-59
2021/01/15 04:23:32;;;;;;;7.23;5.57;;;;;;;;;;5029658;28;20757;-56
2021/01/15 04:25:58;;;;;;;7.70;5.70;;;;;;;;;;5029256;28;20498;-56
2021/01/15 04:28:24;;;;;;;7.73;5.93;;;;;;;;;;5029212;28;20790;-57
2021/01/15 04:30:50;;;;;;;7.63;6.23;;;;;;;;;;5032034;28;21226;-56
2021/01/15 04:33:16;;;;;;;7.13;6.20;;;;;;;;;;5015615;28;20926;-56
2021/01/15 04:35:42;;;;;;;7.53;5.83;;;;;;;;;;5032956;28;20435;-57
2021/01/15 04:38:08;;;;;;;7.37;5.77;;;;;;;;;;5033609;28;20433;-56
2021/01/15 04:40:34;;;;;;;8.93;5.63;;;;;;;;;;5033221;28;20420;-58
2021/01/15 04:43:03;;;;;;;7.97;6.27;;;;;;;;;;5033045;28;21339;-56
2021/01/15 04:45:29;;;;;;;6.93;5.87;;;;;;;;;;5032978;28;20520;-56
2021/01/15 04:47:55;;;;;;;8.13;6.67;;;;;;;;;;5033099;28;20511;-59
2021/01/15 04:50:22;;;;;;;9.03;6.37;;;;;;;;;;5032899;28;20471;-56
2021/01/15 04:52:49;;;;;;;7.53;6.13;;;;;;;;;;5033407;28;20424;-56
2021/01/15 04:55:25;;;;;;;9.40;6.50;;;;;;;;;;5032620;28;20804;-57
2021/01/15 04:57:52;;;;;;;7.27;5.70;;;;;;;;;;5032205;28;20538;-57
2021/01/15 05:00:19;;;;;;;9.70;6.67;;;;;;;;;;5032774;28;20868;-56
2021/01/15 05:02:47;;;;;;;7.30;6.30;;;;;;;;;;5032733;28;20483;-57
2021/01/15 05:05:23;;;;;;;8.80;6.20;;;;;;;;;;5033261;28;20523;-56
2021/01/15 05:08:09;;;;;;;10.53;6.47;;;;;;;;;;5014863;28;20448;-56
2021/01/15 05:10:37;;;;;;;6.97;5.67;;;;;;;;;;5032464;28;20953;-57
2021/01/15 05:13:05;;;;;;;8.40;6.47;;;;;;;;;;5031917;28;20459;-56
2021/01/15 05:15:31;;;;;;;8.83;7.23;;;;;;;;;;5032163;28;20428;-57
2021/01/15 05:17:58;;;;;;;8.23;6.00;;;;;;;;;;5032578;28;20441;-57
2021/01/15 05:20:27;;;;;;;8.80;7.13;;;;;;;;;;5032242;28;20928;-58
2021/01/15 05:22:53;;;;;;;8.13;6.40;;;;;;;;;;5032729;28;20525;-57
2021/01/15 05:25:19;;;;;;;10.60;7.33;;;;;;;;;;5031712;28;20446;-57
2021/01/15 05:27:45;;;;;;;10.50;7.00;;;;;;;;;;5011775;28;20451;-57
2021/01/15 05:30:15;;;;;;;8.13;6.37;;;;;;;;;;5013726;28;20425;-57
2021/01/15 05:32:41;;;;;;;10.50;7.10;;;;;;;;;;5032833;28;20903;-57
2021/01/15 05:35:08;;;;;;;9.80;7.47;;;;;;;;;;5031800;28;20440;-56
2021/01/15 05:37:34;;;;;;;9.67;6.90;;;;;;;;;;5032538;28;20912;-56
2021/01/15 05:40:01;;;;;;;10.13;7.43;;;;;;;;;;5032261;28;20425;-57
2021/01/15 05:42:27;;;;;;;9.30;7.47;;;;;;;;;;5030895;28;20505;-57
2021/01/15 05:44:53;;;;;;;8.03;7.10;;;;;;;;;;5032208;28;20440;-56
2021/01/15 05:47:39;;;;;;;8.80;7.43;;;;;;;;;;5030545;28;20448;-57
2021/01/15 05:50:06;;;;;;;9.03;7.40;;;;;;;;;;5031332;28;20783;-58
2021/01/15 05:52:32;;;;;;;9.47;7.23;;;;;;;;;;5029799;28;20519;-57
2021/01/15 05:54:58;;;;;;;9.47;7.77;;;;;;;;;;5031602;28;20502;-57
2021/01/15 05:57:27;;;;;;;9.03;7.23;;;;;;;;;;5032041;28;20414;-57
2021/01/15 05:59:53;;;;;;;10.70;7.37;;;;;;;;;;5013780;28;20914;-56
2021/01/15 06:02:19;;;;;;;10.07;7.70;;;;;;;;;;5031388;28;21114;-57
2021/01/15 06:04:45;;;;;;;9.43;8.03;;;;;;;;;;5012956;28;20424;-58
2021/01/15 06:07:11;;;;;;;11.17;8.27;;;;;;;;;;5027460;28;20198;-56
2021/01/15 06:09:37;;;;;;;10.73;7.80;;;;;;;;;;5018091;28;20962;-58
2021/01/15 06:12:05;;;;;;;13.00;8.90;;;;;;;;;;5030735;28;20536;-57
2021/01/15 06:14:31;;;;;;;9.43;8.33;;;;;;;;;;5031659;28;20418;-57
2021/01/15 06:17:01;;;;;;;12.90;8.57;;;;;;;;;;5030915;28;20508;-57
2021/01/15 06:19:42;;;;;;;12.47;8.83;;;;;;;;;;5031735;28;20485;-57
2021/01/15 06:22:09;;;;;;;12.60;9.00;;;;;;;;;;5031915;28;20440;-57
2021/01/15 06:24:39;;;;;;;11.93;9.20;;;;;;;;;;5031128;28;20421;-57
2021/01/15 06:27:06;;;;;;;11.50;9.27;;;;;;;;;;5029499;28;20424;-59
2021/01/15 06:29:44;;;;;;;12.03;8.40;;;;;;;;;;5031163;28;20515;-59
2021/01/15 06:32:11;;;;;;;11.37;8.47;;;;;;;;;;5013567;28;20515;-57
2021/01/15 06:34:47;;;;;;;12.37;8.67;;;;;;;;;;5030624;28;20785;-58
2021/01/15 06:37:18;;;;;;;10.47;7.70;;;;;;;;;;5028663;28;20412;-57
2021/01/15 06:39:59;;;;;;;10.90;8.83;;;;;;;;;;5030947;28;20486;-56
2021/01/15 06:42:29;;;;;;;11.50;9.43;;;;;;;;;;5031101;28;20945;-56
2021/01/15 06:44:55;;;;;;;11.40;8.37;;;;;;;;;;5030942;28;20432;-57
2021/01/15 06:47:22;;;;;;;10.17;8.27;;;;;;;;;;5031113;28;20424;-57
2021/01/15 06:49:50;;;;;;;10.30;8.23;;;;;;;;;;5031404;28;21283;-57
2021/01/15 06:52:25;;;;;;;11.20;9.30;;;;;;;;;;5030755;28;20501;-57
2021/01/15 06:54:54;;;;;;;11.23;9.07;;;;;;;;;;5030677;28;20448;-57
2021/01/15 06:57:20;;;;;;;11.87;8.87;;;;;;;;;;5025426;28;20930;-57
2021/01/15 06:59:51;;;;;;;10.47;9.37;;;;;;;;;;5029751;28;20829;-57
2021/01/15 07:02:23;;;;;;;9.97;8.57;;;;;;;;;;5030952;28;20448;-57
2021/01/15 07:04:52;;;;;;;12.30;9.43;;;;;;;;;;5029920;28;20417;-56
2021/01/15 07:07:20;;;;;;;10.90;8.67;;;;;;;;;;5031211;28;20432;-56
2021/01/15 07:09:47;;;;;;;11.50;9.03;;;;;;;;;;5024707;28;20473;-56
2021/01/15 07:12:17;;;;;;;9.80;8.10;;;;;;;;;;5029058;28;20459;-58
2021/01/15 07:14:47;;;;;;;11.47;9.20;;;;;;;;;;5011070;28;20519;-57
2021/01/15 07:17:14;;;;;;;10.57;8.93;;;;;;;;;;5030693;28;20483;-57
2021/01/15 07:19:42;;;;;;;11.00;8.27;;;;;;;;;;5012653;28;20463;-56
2021/01/15 07:22:10;;;;;;;10.00;8.87;;;;;;;;;;5030414;28;20551;-57
2021/01/15 07:24:37;;;;;;;10.57;9.37;;;;;;;;;;5025486;28;20422;-57
2021/01/15 07:27:04;;;;;;;12.73;9.97;;;;;;;;;;5026289;28;20542;-57
2021/01/15 07:29:31;;;;;;;9.43;8.27;;;;;;;;;;5026244;28;20424;-57
2021/01/15 07:32:03;;;;;;;11.07;9.00;;;;;;;;;;5027040;28;20428;-56
2021/01/15 07:34:30;;;;;;;11.37;9.10;;;;;;;;;;5029150;28;20426;-56
2021/01/15 07:36:56;;;;;;;12.53;9.63;;;;;;;;;;5029843;28;20424;-57
2021/01/15 07:39:22;;;;;;;11.53;8.93;;;;;;;;;;5029158;28;20483;-56
2021/01/15 07:41:53;;;;;;;13.47;9.07;;;;;;;;;;5010438;28;20448;-56
2021/01/15 07:44:22;;;;;;;10.70;8.77;;;;;;;;;;5030294;28;20424;-57
2021/01/15 07:46:52;;;;;;;10.53;8.27;;;;;;;;;;5027718;28;20516;-57
2021/01/15 07:49:18;;;;;;;12.63;9.07;;;;;;;;;;5030523;28;20424;-56
2021/01/15 07:52:05;;;;;;;10.40;9.07;;;;;;;;;;5026315;28;20429;-56
2021/01/15 07:55:04;;;;;;;10.17;8.73;;;;;;;;;;5000345;28;20421;-58
2021/01/15 07:57:31;;;;;;;10.83;8.73;;;;;;;;;;5015347;28;20402;-55
2021/01/15 07:59:57;;;;;;;12.07;9.23;;;;;;;;;;5025019;28;21213;-56
2021/01/15 08:02:24;;;;;;;10.83;8.70;;;;;;;;;;5029242;28;20544;-59
2021/01/15 08:04:50;;;;;;;12.80;9.13;;;;;;;;;;5011734;28;20498;-58
2021/01/15 08:07:35;;;;;;;10.90;9.07;;;;;;;;;;5021492;28;20424;-57
2021/01/15 08:10:01;;;;;;;10.57;9.07;;;;;;;;;;5026537;28;20464;-58
2021/01/15 08:12:35;;;;;;;10.30;9.03;;;;;;;;;;5028837;28;20927;-57
2021/01/15 08:15:01;;;;;;;12.00;9.63;;;;;;;;;;5027925;28;20516;-56
2021/01/15 08:17:29;;;;;;;11.20;8.90;;;;;;;;;;5010513;28;20519;-56
2021/01/15 08:19:55;;;;;;;11.67;9.27;;;;;;;;;;5029312;28;20177;-56
2021/01/15 08:22:22;;;;;;;11.80;9.63;;;;;;;;;;5027789;28;20467;-57
2021/01/15 08:24:49;;;;;;;10.63;8.67;;;;;;;;;;5011489;28;20421;-57
2021/01/15 08:27:24;;;;;;;12.17;9.73;;;;;;;;;;5027915;28;20507;-57
2021/01/15 08:29:50;;;;;;;10.10;8.57;;;;;;;;;;5029239;28;20871;-56
2021/01/15 08:32:16;;;;;;;11.40;8.67;;;;;;;;;;5027991;28;20443;-58
2021/01/15 08:34:44;;;;;;;10.67;9.07;;;;;;;;;;5009787;28;20464;-57
2021/01/15 08:37:11;;;;;;;11.90;9.17;;;;;;;;;;5022079;28;20436;-56
2021/01/15 08:39:49;;;;;;;12.97;9.63;;;;;;;;;;5028288;28;20451;-58
2021/01/15 08:42:16;;;;;;;12.03;9.20;;;;;;;;;;5025872;28;20448;-57
2021/01/15 08:44:42;;;;;;;12.20;9.33;;;;;;;;;;5028735;28;20741;-58
2021/01/15 08:47:12;;;;;;;13.30;9.60;;;;;;;;;;5028920;28;20425;-57
2021/01/15 08:49:55;;;;;;;11.97;9.67;;;;;;;;;;5010851;28;20427;-58
2021/01/15 08:52:22;;;;;;;11.33;8.80;;;;;;;;;;5026599;28;20765;-57
2021/01/15 08:54:49;;;;;;;13.77;9.83;;;;;;;;;;5028801;28;20786;-59
2021/01/15 08:57:16;;;;;;;15.40;10.30;;;;;;;;;;5028310;28;20498;-57
2021/01/15 08:59:42;;;;;;;11.37;8.93;;;;;;;;;;5029156;28;20413;-57
2021/01/15 09:02:10;;;;;;;12.20;9.47;;;;;;;;;;5028935;28;20468;-59
2021/01/15 09:04:36;;;;;;;12.97;9.43;;;;;;;;;;5031935;28;20425;-58
2021/01/15 09:07:07;;;;;;;13.33;11.00;;;;;;;;;;5028627;28;20432;-58
2021/01/15 09:09:35;;;;;;;11.67;9.13;;;;;;;;;;5028954;28;20543;-57
2021/01/15 09:12:02;;;;;;;12.13;9.90;;;;;;;;;;5010774;28;20425;-59
2021/01/15 09:14:28;;;;;;;11.07;9.47;;;;;;;;;;5010529;28;20428;-57
2021/01/15 09:16:54;;;;;;;13.00;10.33;;;;;;;;;;5008744;28;20512;-57
2021/01/15 09:19:20;;;;;;;13.03;9.50;;;;;;;;;;5013024;28;20424;-56
2021/01/15 09:21:47;;;;;;;15.07;10.70;;;;;;;;;;5007499;28;20460;-59
2021/01/15 09:24:14;;;;;;;13.57;10.60;;;;;;;;;;5033054;28;20874;-60
2021/01/15 09:26:40;;;;;;;12.70;10.33;;;;;;;;;;5031822;28;21095;-58
2021/01/15 09:29:06;;;;;;;15.27;10.20;;;;;;;;;;5032615;28;20951;-57
2021/01/15 09:31:32;;;;;;;14.03;10.30;;;;;;;;;;5013800;28;20435;-57
2021/01/15 09:33:59;;;;;;;13.33;10.43;;;;;;;;;;5014698;28;20412;-60
2021/01/15 09:36:26;;;;;;;13.50;10.77;;;;;;;;;;5014844;28;20413;-58
2021/01/15 09:38:56;;;;;;;13.73;11.10;;;;;;;;;;5032317;28;20421;-57
2021/01/15 09:41:22;;;;;;;14.47;10.73;;;;;;;;;;5013370;28;20532;-57
2021/01/15 09:43:51;;;;;;;13.60;11.03;;;;;;;;;;5032347;28;20423;-57
2021/01/15 09:46:24;;;;;;;14.37;10.80;;;;;;;;;;5031881;28;20412;-58
2021/01/15 09:48:51;;;;;;;14.00;11.10;;;;;;;;;;5031799;28;20891;-57
2021/01/15 09:51:19;;;;;;;12.30;10.43;;;;;;;;;;5031968;28;20421;-58
2021/01/15 09:53:45;;;;;;;14.17;10.87;;;;;;;;;;5031275;28;20428;-58
2021/01/15 09:56:20;;;;;;;13.93;10.00;;;;;;;;;;5013465;28;20417;-57
2021/01/15 09:58:46;;;;;;;16.17;11.63;;;;;;;;;;5031441;28;20415;-57
2021/01/15 10:01:12;;;;;;;15.23;11.27;;;;;;;;;;5031360;28;20507;-57
2021/01/15 10:03:38;;;;;;;14.53;10.50;;;;;;;;;;5032252;28;20413;-57
2021/01/15 10:06:04;;;;;;;14.23;11.33;;;;;;;;;;5032217;28;20181;-59
2021/01/15 10:08:30;;;;;;;14.30;10.70;;;;;;;;;;5029543;28;20456;-57
2021/01/15 10:10:56;;;;;;;14.80;11.30;;;;;;;;;;5010112;28;20518;-59
2021/01/15 10:13:22;;;;;;;14.20;10.20;;;;;;;;;;5031410;28;20554;-57
2021/01/15 10:15:48;;;;;;;15.23;11.37;;;;;;;;;;5013616;28;20432;-58
2021/01/15 10:18:14;;;;;;;13.77;10.03;;;;;;;;;;5031424;28;20409;-57
2021/01/15 10:20:44;;;;;;;14.50;11.17;;;;;;;;;;5031666;28;20416;-57
2021/01/15 10:23:10;;;;;;;13.23;10.87;;;;;;;;;;5024820;28;21061;-57
2021/01/15 10:25:36;;;;;;;13.90;10.70;;;;;;;;;;5029706;28;20417;-58
2021/01/15 10:28:03;;;;;;;17.03;11.43;;;;;;;;;;5011967;28;20428;-57
2021/01/15 10:30:30;;;;;;;15.03;10.67;;;;;;;;;;5031433;28;20436;-60
2021/01/15 10:32:56;;;;;;;14.87;9.97;;;;;;;;;;5025939;28;20822;-57
2021/01/15 10:35:22;;;;;;;13.07;9.67;;;;;;;;;;5013237;28;20453;-58
2021/01/15 10:37:49;;;;;;;14.37;9.90;;;;;;;;;;5024951;28;20438;-57
2021/01/15 10:40:15;;;;;;;13.03;9.47;;;;;;;;;;5023346;28;20420;-57
2021/01/15 10:42:46;;;;;;;12.10;9.20;;;;;;;;;;5030693;28;20551;-59
2021/01/15 10:45:12;;;;;;;13.97;10.47;;;;;;;;;;5011453;28;20412;-57
2021/01/15 10:47:42;;;;;;;11.87;9.73;;;;;;;;;;5030929;28;20417;-58
2021/01/15 10:50:09;;;;;;;14.33;10.33;;;;;;;;;;5031186;28;20413;-58
2021/01/15 10:52:35;;;;;;;12.80;10.07;;;;;;;;;;5030509;28;20929;-58
2021/01/15 10:55:02;;;;;;;14.10;9.87;;;;;;;;;;5020509;28;20424;-58
2021/01/15 10:57:28;;;;;;;13.10;9.67;;;;;;;;;;5029161;28;20769;-58
2021/01/15 10:59:54;;;;;;;12.07;9.70;;;;;;;;;;5005129;28;20796;-59
2021/01/15 11:02:20;;;;;;;13.90;10.17;;;;;;;;;;5013132;28;20869;-57
2021/01/15 11:04:46;;;;;;;11.57;9.03;;;;;;;;;;5013322;28;20405;-56
2021/01/15 11:07:12;;;;;;;13.17;9.90;;;;;;;;;;5023691;28;21182;-57
2021/01/15 11:09:41;;;;;;;12.73;9.33;;;;;;;;;;5024888;28;20456;-58
2021/01/15 11:12:07;;;;;;;13.67;10.37;;;;;;;;;;5027530;28;20440;-57
2021/01/15 11:14:35;;;;;;;12.57;9.97;;;;;;;;;;5029568;28;20421;-57
2021/01/15 11:17:01;;;;;;;12.80;9.53;;;;;;;;;;4997509;28;20426;-58
2021/01/15 11:19:28;;;;;;;12.33;9.30;;;;;;;;;;5011205;28;20413;-58
2021/01/15 11:21:54;;;;;;;12.00;9.70;;;;;;;;;;5024433;28;20548;-57
2021/01/15 11:24:20;;;;;;;10.90;8.90;;;;;;;;;;5012573;28;20582;-59
2021/01/15 11:26:46;;;;;;;12.20;8.87;;;;;;;;;;5029539;28;20427;-58
2021/01/15 11:29:13;;;;;;;11.97;9.63;;;;;;;;;;5026696;28;20424;-59
2021/01/15 11:31:42;;;;;;;11.40;8.83;;;;;;;;;;5019330;28;20802;-59
2021/01/15 11:34:08;;;;;;;13.17;9.50;;;;;;;;;;5030897;28;20555;-59
2021/01/15 11:36:35;;;;;;;11.37;8.93;;;;;;;;;;5012721;28;20870;-59
2021/01/15 11:39:01;;;;;;;11.67;8.83;;;;;;;;;;5020864;28;20413;-59
2021/01/15 11:41:28;;;;;;;11.67;9.00;;;;;;;;;;4998672;28;20440;-58
2021/01/15 11:43:54;;;;;;;11.13;8.63;;;;;;;;;;5019077;28;20174;-58
2021/01/15 11:46:20;;;;;;;11.07;8.63;;;;;;;;;;5028465;28;20892;-58
2021/01/15 11:48:47;;;;;;;11.63;9.30;;;;;;;;;;5029648;28;20416;-58
2021/01/15 11:51:13;;;;;;;10.73;8.83;;;;;;;;;;5029754;28;20432;-58
2021/01/15 11:53:39;;;;;;;11.83;8.80;;;;;;;;;;5029902;28;20425;-58
2021/01/15 11:56:06;;;;;;;12.37;8.97;;;;;;;;;;5023085;28;20955;-59
2021/01/15 11:58:32;;;;;;;10.50;8.67;;;;;;;;;;5000273;28;20425;-58
2021/01/15 12:00:58;;;;;;;10.90;8.10;;;;;;;;;;5018965;28;20420;-58
2021/01/15 12:03:24;;;;;;;11.83;8.83;;;;;;;;;;5010648;28;20201;-58
2021/01/15 12:05:51;;;;;;;11.33;9.03;;;;;;;;;;5028401;28;20475;-58
2021/01/15 12:08:18;;;;;;;13.57;9.13;;;;;;;;;;5029075;28;20476;-58
2021/01/15 12:10:44;;;;;;;13.00;9.50;;;;;;;;;;5029014;28;20763;-58
2021/01/15 12:13:10;;;;;;;12.30;9.27;;;;;;;;;;5029434;28;20949;-59
2021/01/15 12:15:36;;;;;;;12.00;9.20;;;;;;;;;;5011484;28;20435;-58
2021/01/15 12:18:02;;;;;;;11.03;9.37;;;;;;;;;;5029830;28;20469;-57
2021/01/15 12:20:28;;;;;;;12.00;8.57;;;;;;;;;;5029565;28;20814;-59
2021/01/15 12:22:54;;;;;;;12.57;9.10;;;;;;;;;;5029806;28;20459;-58
2021/01/15 12:25:21;;;;;;;11.03;8.47;;;;;;;;;;5029307;28;20824;-59
2021/01/15 12:27:47;;;;;;;11.70;9.23;;;;;;;;;;5028116;28;20603;-58
2021/01/15 12:30:14;;;;;;;10.57;8.53;;;;;;;;;;5010970;28;20442;-58
2021/01/15 12:32:40;;;;;;;12.53;9.00;;;;;;;;;;5029170;28;20443;-58
2021/01/15 12:35:06;;;;;;;11.87;9.37;;;;;;;;;;5029302;28;20432;-58
2021/01/15 12:37:32;;;;;;;15.90;10.30;;;;;;;;;;5029654;28;20413;-58
2021/01/15 12:39:58;;;;;;;12.43;9.53;;;;;;;;;;5029137;28;20435;-58
2021/01/15 12:42:24;;;;;;;13.27;9.90;;;;;;;;;;5029162;28;20452;-57
2021/01/15 12:44:50;;;;;;;13.30;9.93;;;;;;;;;;5027537;28;20428;-60
2021/01/15 12:47:16;;;;;;;16.57;10.37;;;;;;;;;;5022023;28;20431;-58
2021/01/15 12:49:42;;;;;;;13.23;10.77;;;;;;;;;;5007214;28;20647;-59
2021/01/15 12:52:08;;;;;;;16.50;10.17;;;;;;;;;;5029481;28;20663;-58
2021/01/15 12:54:34;;;;;;;16.93;11.40;;;;;;;;;;5030731;28;20432;-58
2021/01/15 12:57:00;;;;;;;15.60;11.17;;;;;;;;;;5031940;28;20424;-59
2021/01/15 12:59:26;;;;;;;14.43;10.80;;;;;;;;;;5026774;28;20851;-58
2021/01/15 13:01:52;;;;;;;15.33;11.17;;;;;;;;;;5030801;28;20503;-58
2021/01/15 13:04:18;;;;;;;15.43;11.37;;;;;;;;;;5026414;28;20178;-57
2021/01/15 13:06:44;;;;;;;17.93;12.40;;;;;;;;;;5031889;28;20831;-58
2021/01/15 13:09:11;;;;;;;14.37;10.83;;;;;;;;;;5009644;28;20917;-59
2021/01/15 13:11:37;;;;;;;14.53;10.70;;;;;;;;;;5014492;28;20527;-57
2021/01/15 13:14:04;;;;;;;14.93;11.57;;;;;;;;;;5032598;28;20507;-57
2021/01/15 13:16:30;;;;;;;14.93;11.03;;;;;;;;;;5027501;28;20465;-59
2021/01/15 13:18:57;;;;;;;13.60;10.97;;;;;;;;;;5028866;28;20424;-58
2021/01/15 13:21:23;;;;;;;17.27;11.67;;;;;;;;;;5028021;28;20795;-58
2021/01/15 13:23:49;;;;;;;14.07;10.83;;;;;;;;;;5029601;28;20796;-59
2021/01/15 13:26:15;;;;;;;17.17;12.10;;;;;;;;;;5031709;28;20421;-60
2021/01/15 13:28:42;;;;;;;14.57;10.80;;;;;;;;;;5013049;28;20435;-57
2021/01/15 13:31:08;;;;;;;16.57;11.40;;;;;;;;;;5032420;28;20444;-58
2021/01/15 13:33:34;;;;;;;19.50;11.40;;;;;;;;;;5006938;28;20436;-58
2021/01/15 13:36:01;;;;;;;13.80;11.50;;;;;;;;;;5030606;28;20201;-57
2021/01/15 13:38:27;;;;;;;16.50;11.73;;;;;;;;;;5028712;28;20443;-58
2021/01/15 13:40:54;;;;;;;15.87;11.47;;;;;;;;;;5011556;28;20968;-57
2021/01/15 13:43:20;;;;;;;15.33;10.97;;;;;;;;;;5029807;28;20464;-57
2021/01/15 13:45:46;;;;;;;15.33;11.27;;;;;;;;;;5030678;28;20470;-58
2021/01/15 13:48:12;;;;;;;12.83;9.60;;;;;;;;;;5032547;28;20448;-58
2021/01/15 13:50:45;;;;;;;14.73;10.90;;;;;;;;;;5013285;28;20428;-58
2021/01/15 13:53:12;;;;;;;16.03;11.10;;;;;;;;;;5014162;28;20441;-58
2021/01/15 13:55:38;;;;;;;17.43;11.73;;;;;;;;;;5025334;28;20448;-58
2021/01/15 13:58:04;;;;;;;17.20;11.27;;;;;;;;;;5028241;28;20433;-57
2021/01/15 14:00:30;;;;;;;14.37;9.93;;;;;;;;;;5023779;28;21656;-58
2021/01/15 14:02:56;;;;;;;15.77;12.07;;;;;;;;;;5026555;28;20197;-59
2021/01/15 14:05:22;;;;;;;16.77;12.10;;;;;;;;;;5027786;28;20181;-58
2021/01/15 14:07:48;;;;;;;15.13;11.40;;;;;;;;;;5031458;28;20182;-57
2021/01/15 14:10:14;;;;;;;16.07;12.00;;;;;;;;;;5031200;28;20963;-57
2021/01/15 14:12:40;;;;;;;15.60;11.90;;;;;;;;;;5030402;28;20197;-59
2021/01/15 14:15:06;;;;;;;16.00;11.40;;;;;;;;;;5013346;28;20425;-57
2021/01/15 14:17:33;;;;;;;15.63;11.53;;;;;;;;;;5013367;28;20504;-57
2021/01/15 14:19:59;;;;;;;20.17;11.83;;;;;;;;;;5013626;28;20412;-57
2021/01/15 14:22:25;;;;;;;15.67;10.83;;;;;;;;;;5013004;28;20918;-60
2021/01/15 14:24:51;;;;;;;16.40;10.97;;;;;;;;;;5031194;28;20412;-57
2021/01/15 14:27:17;;;;;;;14.50;10.53;;;;;;;;;;5030542;28;20182;-58
2021/01/15 14:29:43;;;;;;;13.30;9.93;;;;;;;;;;5025181;28;20784;-57
2021/01/15 14:32:13;;;;;;;15.23;9.83;;;;;;;;;;5011031;28;20425;-57
2021/01/15 14:34:39;;;;;;;13.50;9.40;;;;;;;;;;5011800;28;20409;-57
2021/01/15 14:37:05;;;;;;;13.50;10.20;;;;;;;;;;5020491;28;20507;-59